Time;durP1;ratioP1;P1;durP2;ratioP2;P2;SDS_P1;SDS_P2;PMS_P1;PMS_P2;Temp;Humidity;BMP_temperature;BMP_pressure;BME280_temperature;BME280_humidity;BME280_pressure;Samples;Min_cycle;Max_cycle;Signal;HPM_P1;HPM_P2
2021/07/03 00:02:01;;;;;;;6.90;5.93;;;18.30;92.10;;;;;;4995465;28;20077;-87
2021/07/03 00:04:27;;;;;;;7.15;6.38;;;18.20;92.10;;;;;;4995215;28;20109;-86
2021/07/03 00:06:53;;;;;;;10.68;6.50;;;18.10;92.20;;;;;;4995033;28;20049;-87
2021/07/03 00:09:19;;;;;;;8.48;6.72;;;18.10;92.40;;;;;;4992529;28;20042;-86
2021/07/03 00:11:46;;;;;;;6.78;6.05;;;18.00;92.50;;;;;;4990551;28;20086;-85
2021/07/03 00:14:12;;;;;;;8.30;6.15;;;18.00;92.80;;;;;;4989014;28;20019;-86
2021/07/03 00:16:39;;;;;;;8.25;5.82;;;18.00;92.60;;;;;;4987723;28;20074;-86
2021/07/03 00:19:05;;;;;;;7.30;5.88;;;17.90;92.70;;;;;;4987607;28;20037;-87
2021/07/03 00:21:31;;;;;;;7.40;6.22;;;17.90;92.70;;;;;;4991497;28;20392;-86
2021/07/03 00:23:57;;;;;;;6.32;5.57;;;17.90;92.80;;;;;;4994315;28;20030;-87
2021/07/03 00:26:24;;;;;;;10.05;5.93;;;17.90;92.90;;;;;;4994017;28;20373;-86
2021/07/03 00:28:50;;;;;;;5.85;5.32;;;17.90;92.90;;;;;;4982125;28;20426;-85
2021/07/03 00:31:16;;;;;;;5.45;4.93;;;18.00;92.80;;;;;;4995833;28;20106;-87
2021/07/03 00:33:42;;;;;;;7.38;5.60;;;18.00;92.70;;;;;;4981246;28;20029;-86
2021/07/03 00:36:08;;;;;;;9.98;6.43;;;18.10;92.70;;;;;;4995197;28;20387;-85
2021/07/03 00:38:35;;;;;;;7.97;6.10;;;18.00;92.50;;;;;;4995251;28;20022;-87
2021/07/03 00:41:01;;;;;;;7.53;6.00;;;18.10;92.50;;;;;;4995571;28;20084;-86
2021/07/03 00:43:27;;;;;;;6.63;5.60;;;18.10;92.50;;;;;;4994408;28;20264;-85
2021/07/03 00:45:53;;;;;;;6.75;5.80;;;18.10;92.50;;;;;;4975721;28;20078;-86
2021/07/03 00:48:19;;;;;;;7.53;5.60;;;18.10;92.40;;;;;;4987492;28;20014;-88
2021/07/03 00:50:45;;;;;;;5.78;5.22;;;18.10;92.40;;;;;;4994571;28;20030;-87
2021/07/03 00:53:11;;;;;;;7.18;5.65;;;18.10;92.40;;;;;;4997825;28;20026;-88
2021/07/03 00:55:37;;;;;;;6.18;5.57;;;18.10;92.40;;;;;;4996290;28;20026;-87
2021/07/03 00:58:03;;;;;;;6.65;5.43;;;18.00;92.60;;;;;;4997750;28;20049;-86
2021/07/03 01:00:29;;;;;;;5.97;5.35;;;18.10;92.50;;;;;;4996943;28;20041;-88
2021/07/03 01:02:56;;;;;;;6.35;5.75;;;18.20;92.30;;;;;;5000443;28;20019;-88
2021/07/03 01:05:22;;;;;;;6.30;5.03;;;18.30;92.10;;;;;;4986476;28;20023;-89
2021/07/03 01:07:48;;;;;;;6.10;5.05;;;18.30;92.00;;;;;;4996116;28;20014;-88
2021/07/03 01:10:23;;;;;;;8.32;5.82;;;18.20;91.90;;;;;;4988453;28;20038;-88
2021/07/03 01:12:50;;;;;;;7.65;5.60;;;18.10;92.00;;;;;;4995651;28;20170;-88
2021/07/03 01:15:17;;;;;;;7.25;6.50;;;18.10;92.10;;;;;;4998967;28;20549;-89
2021/07/03 01:17:43;;;;;;;6.53;5.93;;;18.10;92.20;;;;;;4997069;28;20031;-87
2021/07/03 01:20:11;;;;;;;7.60;6.28;;;18.10;92.20;;;;;;4997901;28;20493;-86
2021/07/03 01:22:38;;;;;;;5.90;5.28;;;18.10;92.20;;;;;;4986580;28;20376;-86
2021/07/03 01:25:05;;;;;;;6.57;5.82;;;18.10;92.20;;;;;;4995521;28;20034;-88
2021/07/03 01:27:31;;;;;;;8.18;5.38;;;18.20;92.10;;;;;;5011606;28;20022;-85
2021/07/03 01:29:57;;;;;;;7.63;5.40;;;18.30;91.90;;;;;;5012813;28;20034;-85
2021/07/03 01:32:23;;;;;;;9.70;6.07;;;18.40;91.80;;;;;;4999981;28;20015;-86
2021/07/03 01:34:49;;;;;;;6.53;5.93;;;18.40;91.60;;;;;;4999491;28;20034;-88
2021/07/03 01:37:15;;;;;;;6.15;5.55;;;18.30;91.60;;;;;;5000309;28;20105;-85
2021/07/03 01:39:41;;;;;;;6.97;5.32;;;18.30;91.60;;;;;;5001189;28;20064;-86
2021/07/03 01:42:07;;;;;;;8.95;6.15;;;18.40;91.70;;;;;;5002672;28;20026;-84
2021/07/03 01:44:34;;;;;;;8.52;6.45;;;18.40;91.70;;;;;;4999768;28;20029;-84
2021/07/03 01:47:02;;;;;;;9.93;7.03;;;18.40;91.50;;;;;;4993481;28;20026;-86
2021/07/03 01:49:34;;;;;;;8.98;6.55;;;18.40;91.50;;;;;;4997651;28;20023;-85
2021/07/03 01:52:00;;;;;;;9.40;7.10;;;18.50;91.50;;;;;;5001243;28;20353;-86
2021/07/03 01:54:26;;;;;;;8.65;6.78;;;18.40;91.40;;;;;;4998258;28;20058;-85
2021/07/03 01:56:58;;;;;;;8.98;7.22;;;18.40;91.40;;;;;;4997944;28;20120;-86
2021/07/03 01:59:29;;;;;;;8.27;6.72;;;18.40;91.40;;;;;;4997527;28;20484;-84
2021/07/03 02:01:57;;;;;;;6.85;6.10;;;18.50;91.30;;;;;;4997231;28;20084;-88
2021/07/03 02:04:23;;;;;;;;;;;18.40;91.40;;;;;;4998401;28;20029;-87
2021/07/03 02:06:49;;;;;;;7.80;6.10;;;18.40;91.20;;;;;;4995632;28;19912;-87
2021/07/03 02:09:18;;;;;;;8.57;5.38;;;18.30;91.50;;;;;;4997325;28;20093;-84
2021/07/03 02:11:44;;;;;;;5.93;5.32;;;18.40;91.60;;;;;;4999787;28;20061;-85
2021/07/03 02:14:10;;;;;;;8.52;6.07;;;18.40;91.50;;;;;;4993403;28;20097;-86
2021/07/03 02:16:36;;;;;;;7.57;5.53;;;18.40;91.40;;;;;;4987798;28;20096;-84
2021/07/03 02:19:07;;;;;;;7.72;5.53;;;18.40;91.30;;;;;;4984617;28;20149;-86
2021/07/03 02:21:33;;;;;;;8.07;5.88;;;18.40;91.30;;;;;;4996228;28;20129;-86
2021/07/03 02:23:59;;;;;;;6.83;5.60;;;18.40;91.40;;;;;;4996894;28;20415;-86
2021/07/03 02:26:26;;;;;;;9.85;6.18;;;18.40;91.40;;;;;;4995663;28;20029;-84
2021/07/03 02:28:53;;;;;;;7.97;6.13;;;18.50;91.40;;;;;;4986971;28;20031;-86
2021/07/03 02:31:19;;;;;;;9.27;5.95;;;18.50;91.20;;;;;;4990158;28;20029;-87
2021/07/03 02:33:46;;;;;;;6.63;5.30;;;18.60;91.10;;;;;;4984649;28;20026;-87
2021/07/03 02:36:13;;;;;;;8.48;5.18;;;18.50;91.10;;;;;;4982624;28;20027;-88
2021/07/03 02:38:39;;;;;;;6.38;5.78;;;18.50;91.20;;;;;;4982866;28;20062;-86
2021/07/03 02:41:05;;;;;;;8.38;6.38;;;18.50;91.10;;;;;;4996633;28;20031;-86
2021/07/03 02:43:31;;;;;;;7.38;5.90;;;18.60;91.00;;;;;;4996690;28;20384;-87
2021/07/03 02:45:57;;;;;;;9.13;6.15;;;18.60;90.90;;;;;;4997187;28;20026;-87
2021/07/03 02:48:22;;;;;;;11.93;6.30;;;18.70;90.80;;;;;;4999271;28;20097;-88
2021/07/03 02:50:48;;;;;;;6.25;5.65;;;18.70;90.60;;;;;;5004846;28;20153;-86
2021/07/03 02:53:15;;;;;;;8.32;6.32;;;18.70;90.60;;;;;;5000461;28;20432;-87
2021/07/03 02:55:41;;;;;;;8.37;6.23;;;18.80;90.50;;;;;;4997187;28;20022;-88
2021/07/03 02:58:07;;;;;;;7.82;6.07;;;18.90;90.30;;;;;;4992552;28;20502;-87
2021/07/03 03:00:33;;;;;;;10.40;6.43;;;19.00;90.10;;;;;;4993674;28;20395;-87
2021/07/03 03:02:58;;;;;;;6.35;5.65;;;19.00;89.70;;;;;;4996703;28;20026;-90
2021/07/03 03:05:25;;;;;;;10.35;5.40;;;19.00;89.50;;;;;;4999951;28;20122;-88
2021/07/03 03:07:51;;;;;;;9.18;5.70;;;18.90;89.80;;;;;;4999770;28;20026;-87
2021/07/03 03:10:18;;;;;;;8.48;6.50;;;18.80;89.80;;;;;;4998527;28;20031;-89
2021/07/03 03:12:44;;;;;;;9.38;6.68;;;18.90;89.80;;;;;;5000370;28;20100;-87
2021/07/03 03:15:12;;;;;;;6.43;5.70;;;18.90;89.60;;;;;;4996401;28;20113;-87
2021/07/03 03:17:39;;;;;;;8.77;5.90;;;18.90;89.70;;;;;;4995266;28;20033;-87
2021/07/03 03:20:08;;;;;;;8.90;8.00;;;18.90;89.60;;;;;;4996497;28;20040;-86
2021/07/03 03:22:34;;;;;;;8.95;7.07;;;18.90;89.30;;;;;;4997103;28;20525;-85
2021/07/03 03:24:59;;;;;;;9.98;7.50;;;18.90;88.90;;;;;;4999221;28;20034;-86
2021/07/03 03:27:25;;;;;;;8.43;7.32;;;19.00;88.80;;;;;;4999676;28;20029;-87
2021/07/03 03:29:51;;;;;;;10.10;8.20;;;19.00;88.30;;;;;;4981446;28;20041;-86
2021/07/03 03:32:18;;;;;;;12.93;7.55;;;18.90;88.30;;;;;;5001135;28;20098;-85
2021/07/03 03:34:44;;;;;;;8.67;7.07;;;19.00;88.80;;;;;;5004273;28;20038;-86
2021/07/03 03:37:09;;;;;;;7.30;6.18;;;19.00;89.00;;;;;;4995124;28;20026;-86
2021/07/03 03:39:36;;;;;;;8.65;6.78;;;19.10;88.90;;;;;;4993175;28;20038;-85
2021/07/03 03:42:02;;;;;;;7.00;5.80;;;19.20;88.70;;;;;;4995575;28;20086;-85
2021/07/03 03:44:28;;;;;;;7.72;5.75;;;19.20;88.10;;;;;;4999042;28;20553;-84
2021/07/03 03:46:54;;;;;;;7.65;6.28;;;19.30;88.20;;;;;;4994145;28;20054;-86
2021/07/03 03:49:21;;;;;;;7.03;6.32;;;19.30;88.10;;;;;;4991662;28;20477;-85
2021/07/03 03:51:50;;;;;;;7.13;6.03;;;19.30;88.00;;;;;;4990661;28;20488;-86
2021/07/03 03:54:17;;;;;;;6.40;5.65;;;19.40;87.00;;;;;;4995823;28;20087;-86
2021/07/03 03:56:43;;;;;;;6.72;6.10;;;19.40;86.80;;;;;;4996458;28;20019;-85
2021/07/03 03:59:11;;;;;;;7.15;5.18;;;19.40;86.90;;;;;;4996911;28;20034;-88
2021/07/03 04:01:37;;;;;;;6.65;5.25;;;19.50;86.70;;;;;;4996629;28;20448;-87
2021/07/03 04:04:03;;;;;;;8.85;5.03;;;19.60;86.50;;;;;;4996364;28;20030;-87
2021/07/03 04:06:30;;;;;;;6.75;4.63;;;19.80;85.50;;;;;;4998106;28;20018;-86
2021/07/03 04:08:56;;;;;;;6.32;5.43;;;20.00;84.60;;;;;;4996880;28;20061;-87
2021/07/03 04:11:22;;;;;;;8.52;5.45;;;20.10;84.50;;;;;;4999429;28;20097;-88
2021/07/03 04:13:48;;;;;;;6.53;4.78;;;20.30;83.60;;;;;;4998852;28;20022;-87
2021/07/03 04:16:13;;;;;;;8.18;5.40;;;20.40;82.70;;;;;;4998094;28;20022;-87
2021/07/03 04:18:39;;;;;;;7.97;5.63;;;20.50;82.30;;;;;;4997828;28;20073;-86
2021/07/03 04:21:05;;;;;;;6.00;4.60;;;20.70;81.50;;;;;;4998801;28;20085;-85
2021/07/03 04:23:31;;;;;;;6.68;4.72;;;20.50;81.60;;;;;;4993333;28;20018;-88
2021/07/03 04:25:57;;;;;;;5.88;4.88;;;20.60;81.30;;;;;;5000883;28;20030;-90
2021/07/03 04:28:23;;;;;;;6.40;5.13;;;20.70;81.10;;;;;;4995536;28;20079;-86
2021/07/03 04:30:48;;;;;;;7.55;5.20;;;20.60;80.80;;;;;;4995508;28;20038;-87
2021/07/03 04:33:14;;;;;;;6.18;5.15;;;20.60;81.00;;;;;;5002978;28;20015;-88
2021/07/03 04:35:40;;;;;;;6.07;4.85;;;20.50;81.10;;;;;;5000251;28;20065;-87
2021/07/03 04:38:06;;;;;;;5.38;4.78;;;20.50;81.20;;;;;;4997534;28;20081;-86
2021/07/03 04:40:32;;;;;;;5.90;5.28;;;20.70;80.70;;;;;;4999575;28;20062;-86
2021/07/03 04:42:58;;;;;;;6.35;5.28;;;20.80;80.00;;;;;;4996567;28;20025;-85
2021/07/03 04:45:24;;;;;;;7.22;5.78;;;20.70;79.30;;;;;;4996704;28;20030;-87
2021/07/03 04:47:51;;;;;;;5.72;4.78;;;20.60;80.60;;;;;;4993823;28;20022;-86
2021/07/03 04:50:17;;;;;;;7.57;4.78;;;20.70;80.40;;;;;;4994495;28;20042;-86
2021/07/03 04:52:43;;;;;;;6.28;5.50;;;20.90;80.10;;;;;;4994417;28;20029;-87
2021/07/03 04:55:09;;;;;;;5.85;5.18;;;20.90;79.90;;;;;;4993914;28;20479;-87
2021/07/03 04:57:35;;;;;;;5.57;4.33;;;20.90;79.50;;;;;;4987119;28;20526;-86
2021/07/03 05:00:03;;;;;;;6.55;5.47;;;21.10;78.50;;;;;;4993090;28;20543;-89
2021/07/03 05:02:28;;;;;;;4.70;4.20;;;21.20;78.70;;;;;;4992951;28;20014;-87
2021/07/03 05:04:54;;;;;;;5.60;4.82;;;21.30;78.00;;;;;;4991616;28;20034;-87
2021/07/03 05:07:20;;;;;;;5.78;4.72;;;21.30;78.10;;;;;;4994034;28;20029;-85
2021/07/03 05:09:46;;;;;;;6.43;4.18;;;21.20;77.80;;;;;;4993466;28;20113;-85
2021/07/03 05:12:12;;;;;;;7.30;4.50;;;21.20;77.90;;;;;;5000354;28;20137;-85
2021/07/03 05:14:37;;;;;;;5.60;3.90;;;21.20;78.20;;;;;;5004878;28;20019;-86
2021/07/03 05:17:03;;;;;;;8.38;4.00;;;21.70;76.70;;;;;;5006072;28;20061;-87
2021/07/03 05:19:29;;;;;;;5.00;3.38;;;22.40;74.70;;;;;;5000918;28;20062;-87
2021/07/03 05:21:55;;;;;;;4.30;3.08;;;23.50;70.40;;;;;;4999850;28;20846;-87
2021/07/03 05:24:21;;;;;;;3.80;3.35;;;24.30;67.00;;;;;;4999206;28;20101;-88
2021/07/03 05:26:47;;;;;;;3.78;2.90;;;25.60;64.00;;;;;;5001008;28;20361;-87
2021/07/03 05:29:13;;;;;;;5.57;3.20;;;26.50;59.70;;;;;;4999022;28;20037;-87
2021/07/03 05:31:39;;;;;;;8.25;3.88;;;26.00;58.90;;;;;;4995729;28;20023;-86
2021/07/03 05:34:05;;;;;;;8.90;3.72;;;25.40;60.30;;;;;;4990421;28;20049;-88
2021/07/03 05:36:31;;;;;;;4.55;3.70;;;24.80;61.80;;;;;;4996475;28;20031;-86
2021/07/03 05:38:57;;;;;;;5.20;3.33;;;24.20;63.10;;;;;;5004487;28;20094;-87
2021/07/03 05:41:24;;;;;;;8.13;4.35;;;23.60;64.90;;;;;;5004885;28;20026;-86
2021/07/03 05:43:49;;;;;;;5.60;3.83;;;23.30;65.90;;;;;;5002575;28;20494;-87
2021/07/03 05:46:16;;;;;;;8.55;3.80;;;22.90;67.50;;;;;;4997955;28;20038;-86
2021/07/03 05:48:43;;;;;;;4.82;3.70;;;22.70;68.90;;;;;;4996749;28;20026;-86
2021/07/03 05:51:09;;;;;;;3.80;3.40;;;22.80;68.80;;;;;;4996260;28;20031;-86
2021/07/03 05:53:35;;;;;;;4.63;3.70;;;22.60;69.20;;;;;;4997475;28;20488;-87
2021/07/03 05:56:01;;;;;;;7.40;4.03;;;22.50;69.70;;;;;;4998402;28;20051;-88
2021/07/03 05:58:27;;;;;;;3.42;3.00;;;22.30;69.30;;;;;;4997920;28;20061;-88
2021/07/03 06:00:53;;;;;;;6.55;3.45;;;22.10;69.70;;;;;;4991876;28;20066;-88
2021/07/03 06:03:19;;;;;;;5.80;2.90;;;22.10;69.50;;;;;;4996663;28;20022;-87
2021/07/03 06:05:45;;;;;;;4.07;2.67;;;22.10;68.80;;;;;;4997853;28;20048;-86
2021/07/03 06:08:10;;;;;;;5.88;3.25;;;22.00;68.80;;;;;;4997518;28;20484;-85
2021/07/03 06:10:37;;;;;;;5.03;2.88;;;22.10;68.80;;;;;;4996361;28;20506;-87
2021/07/03 06:13:02;;;;;;;6.82;3.15;;;22.00;69.30;;;;;;4999788;28;20042;-85
2021/07/03 06:15:28;;;;;;;5.07;3.60;;;21.90;70.30;;;;;;4997655;28;20077;-85
2021/07/03 06:17:54;;;;;;;4.60;2.63;;;21.80;70.40;;;;;;4998057;28;20567;-84
2021/07/03 06:20:22;;;;;;;3.10;2.65;;;21.80;70.70;;;;;;4993409;28;20121;-86
2021/07/03 06:22:48;;;;;;;3.70;3.05;;;22.50;70.00;;;;;;4993069;28;20019;-89
2021/07/03 06:25:14;;;;;;;10.98;3.42;;;24.20;64.90;;;;;;4998082;28;20046;-86
2021/07/03 06:27:40;;;;;;;6.47;3.50;;;25.30;61.60;;;;;;4983736;28;20030;-86
2021/07/03 06:30:07;;;;;;;4.22;2.88;;;27.60;57.50;;;;;;4996490;28;20077;-85
2021/07/03 06:32:33;;;;;;;5.93;3.03;;;28.60;52.20;;;;;;4998617;28;20019;-86
2021/07/03 06:34:59;;;;;;;6.27;2.67;;;29.50;50.70;;;;;;4998016;28;20026;-86
2021/07/03 06:37:25;;;;;;;5.68;2.10;;;29.90;47.30;;;;;;4996304;28;20101;-87
2021/07/03 06:39:51;;;;;;;3.28;2.58;;;30.00;46.30;;;;;;4996183;28;20050;-87
2021/07/03 06:42:19;;;;;;;4.23;2.03;;;31.70;44.80;;;;;;4997425;28;20014;-88
2021/07/03 06:44:45;;;;;;;2.45;1.88;;;32.90;43.00;;;;;;4996150;28;20026;-89
2021/07/03 06:47:12;;;;;;;4.10;2.85;;;33.80;40.00;;;;;;4997782;28;20018;-88
2021/07/03 06:49:39;;;;;;;4.38;2.08;;;33.00;40.20;;;;;;4997768;28;20053;-89
2021/07/03 06:52:05;;;;;;;3.30;2.33;;;31.40;42.30;;;;;;4995870;28;20022;-87
2021/07/03 06:54:31;;;;;;;5.03;3.27;;;;;;;;;;4996566;28;20054;-86
2021/07/03 06:56:57;;;;;;;6.38;2.40;;;;;;;;;;4994075;28;20034;-84
2021/07/03 06:59:27;;;;;;;3.85;2.50;;;29.70;45.20;;;;;;4995742;28;20026;-87
2021/07/03 07:01:54;;;;;;;3.85;3.35;;;26.00;53.50;;;;;;4996847;28;20058;-88
2021/07/03 07:04:20;;;;;;;;;;;27.30;52.80;;;;;;4998073;28;20046;-90
2021/07/03 07:06:51;;;;;;;2.92;2.25;;;29.90;51.20;;;;;;4986021;28;19906;-90
2021/07/03 07:09:17;;;;;;;4.50;2.38;;;;;;;;;;4983011;28;20096;-88
2021/07/03 07:11:43;;;;;;;3.47;2.70;;;31.90;46.10;;;;;;4996026;28;20081;-87
2021/07/03 07:14:09;;;;;;;2.47;2.28;;;33.60;40.10;;;;;;4995056;28;20031;-86
2021/07/03 07:16:35;;;;;;;5.30;3.07;;;32.20;41.50;;;;;;4990051;28;20023;-86
2021/07/03 07:19:01;;;;;;;3.87;2.60;;;31.70;43.00;;;;;;4990648;28;20030;-84
2021/07/03 07:21:27;;;;;;;2.83;2.37;;;31.60;42.70;;;;;;4986151;28;20262;-87
2021/07/03 07:23:53;;;;;;;2.40;2.20;;;31.00;43.60;;;;;;4996565;28;20327;-86
2021/07/03 07:26:19;;;;;;;6.03;2.38;;;;;;;;;;4999931;28;20077;-85
2021/07/03 07:28:52;;;;;;;4.68;2.33;;;30.20;44.70;;;;;;5000118;28;20026;-88
2021/07/03 07:31:19;;;;;;;4.43;2.88;;;27.90;48.50;;;;;;4994996;28;20030;-84
2021/07/03 07:33:46;;;;;;;6.03;2.85;;;27.00;50.90;;;;;;4995012;28;20546;-87
2021/07/03 07:36:12;;;;;;;6.35;3.38;;;26.20;52.70;;;;;;4995678;28;20030;-87
2021/07/03 07:38:38;;;;;;;7.13;3.67;;;25.60;55.10;;;;;;4989961;28;20031;-88
2021/07/03 07:41:05;;;;;;;5.93;3.22;;;25.10;56.60;;;;;;4991388;28;20161;-87
2021/07/03 07:43:31;;;;;;;6.38;3.47;;;24.80;58.00;;;;;;4998029;28;20022;-88
2021/07/03 07:45:57;;;;;;;8.23;3.13;;;26.50;57.00;;;;;;5009213;28;20495;-86
2021/07/03 07:48:24;;;;;;;4.50;2.97;;;29.20;51.90;;;;;;5007650;28;20037;-88
2021/07/03 07:50:50;;;;;;;7.63;3.22;;;31.30;47.90;;;;;;4998080;28;20046;-89
2021/07/03 07:53:16;;;;;;;4.35;3.05;;;33.20;43.80;;;;;;5000980;28;20081;-89
2021/07/03 07:55:42;;;;;;;5.63;2.83;;;34.00;41.10;;;;;;4999287;28;20050;-90
2021/07/03 07:58:07;;;;;;;5.33;2.80;;;34.20;41.10;;;;;;4996249;28;20109;-89
2021/07/03 08:00:33;;;;;;;5.30;2.60;;;35.50;38.90;;;;;;4995279;28;20062;-86
2021/07/03 08:02:59;;;;;;;3.60;2.00;;;34.80;38.60;;;;;;5001007;28;20347;-87
2021/07/03 08:05:25;;;;;;;3.03;2.60;;;33.70;38.60;;;;;;5000553;28;20037;-87
2021/07/03 08:07:52;;;;;;;3.27;2.43;;;32.90;39.70;;;;;;4987996;28;20311;-87
2021/07/03 08:10:18;;;;;;;5.63;2.70;;;32.20;40.80;;;;;;4993116;28;20030;-89
2021/07/03 08:12:44;;;;;;;3.55;2.58;;;31.20;42.20;;;;;;4997647;28;20049;-86
2021/07/03 08:15:12;;;;;;;8.43;2.97;;;30.00;44.30;;;;;;4995249;28;20030;-87
2021/07/03 08:17:47;;;;;;;4.38;2.60;;;28.60;46.50;;;;;;4993693;28;20337;-86
2021/07/03 08:20:18;;;;;;;4.40;2.72;;;27.70;48.40;;;;;;4986627;28;20084;-87
2021/07/03 08:22:45;;;;;;;4.45;2.50;;;;;;;;;;4990741;28;20018;-86
2021/07/03 08:25:12;;;;;;;4.07;2.53;;;26.80;49.90;;;;;;4996197;28;20027;-89
2021/07/03 08:27:39;;;;;;;4.95;2.72;;;25.80;51.70;;;;;;4990929;28;20034;-87
2021/07/03 08:30:06;;;;;;;;;;;25.30;53.50;;;;;;4992898;28;20034;-88
2021/07/03 08:32:32;;;;;;;5.70;2.40;;;24.80;53.50;;;;;;4996170;28;19906;-86
2021/07/03 08:34:58;;;;;;;4.85;2.70;;;24.50;56.00;;;;;;5000333;28;20085;-87
2021/07/03 08:37:24;;;;;;;5.40;2.42;;;24.60;56.10;;;;;;4999240;28;20022;-88
2021/07/03 08:39:50;;;;;;;5.30;4.70;;;24.80;56.20;;;;;;4999138;28;20118;-86
2021/07/03 08:42:16;;;;;;;9.15;5.82;;;24.70;55.70;;;;;;4992652;28;20485;-87
2021/07/03 08:44:49;;;;;;;8.23;3.20;;;24.50;56.20;;;;;;4994683;28;20547;-86
2021/07/03 08:47:17;;;;;;;6.00;3.20;;;24.30;57.10;;;;;;4980862;28;20022;-86
2021/07/03 08:49:52;;;;;;;8.05;2.92;;;24.10;58.50;;;;;;4992258;28;20440;-89
2021/07/03 08:52:18;;;;;;;8.98;2.90;;;23.80;59.80;;;;;;4996620;28;20158;-86
2021/07/03 08:54:53;;;;;;;3.63;3.20;;;23.80;60.20;;;;;;5004727;28;20026;-87
2021/07/03 08:57:22;;;;;;;3.83;2.65;;;23.70;59.90;;;;;;5002267;28;20376;-88
2021/07/03 08:59:59;;;;;;;3.70;2.88;;;23.30;60.70;;;;;;5000599;28;20042;-89
2021/07/03 09:02:36;;;;;;;9.07;3.58;;;23.00;61.90;;;;;;4997991;28;20105;-86
2021/07/03 09:05:05;;;;;;;7.70;3.13;;;22.90;62.90;;;;;;4999142;28;20487;-87
2021/07/03 09:07:33;;;;;;;6.35;3.75;;;22.90;62.50;;;;;;4979507;28;20166;-86
2021/07/03 09:09:59;;;;;;;8.73;3.17;;;22.90;63.00;;;;;;4997254;28;20049;-87
2021/07/03 09:12:31;;;;;;;3.67;3.33;;;23.00;62.60;;;;;;4999693;28;20066;-87
2021/07/03 09:15:13;;;;;;;10.05;3.42;;;23.10;63.10;;;;;;4999374;28;20480;-89
2021/07/03 09:17:51;;;;;;;5.53;3.70;;;23.20;63.00;;;;;;5005484;28;20476;-86
2021/07/03 09:20:25;;;;;;;4.35;3.22;;;23.30;63.10;;;;;;5007437;28;20031;-89
2021/07/03 09:22:51;;;;;;;5.50;3.97;;;23.20;63.30;;;;;;4991716;28;20022;-86
2021/07/03 09:25:20;;;;;;;8.38;3.67;;;23.00;64.30;;;;;;5002700;28;20042;-88
2021/07/03 09:27:47;;;;;;;6.15;3.95;;;22.80;65.10;;;;;;5004164;28;20060;-88
2021/07/03 09:30:19;;;;;;;8.98;4.05;;;22.60;66.00;;;;;;5006946;28;20048;-82
2021/07/03 09:32:49;;;;;;;5.38;4.20;;;22.40;66.20;;;;;;5001809;28;20108;-83
2021/07/03 09:35:15;;;;;;;7.10;3.80;;;22.20;67.60;;;;;;4998489;28;20036;-84
2021/07/03 09:37:41;;;;;;;6.47;3.50;;;22.20;67.80;;;;;;4997439;28;20365;-84
2021/07/03 09:40:09;;;;;;;4.72;3.60;;;22.20;67.70;;;;;;4997511;28;20045;-84
2021/07/03 09:42:36;;;;;;;5.70;3.45;;;22.20;67.90;;;;;;4998354;28;20018;-89
2021/07/03 09:45:03;;;;;;;5.70;4.40;;;22.10;67.90;;;;;;5000110;28;20093;-88
2021/07/03 09:47:29;;;;;;;8.27;4.35;;;21.90;68.70;;;;;;5000326;28;20076;-87
2021/07/03 09:50:08;;;;;;;8.25;4.65;;;22.00;68.70;;;;;;5001106;28;20113;-88
2021/07/03 09:52:36;;;;;;;5.30;3.80;;;22.20;68.20;;;;;;5004217;28;20080;-87
2021/07/03 09:55:04;;;;;;;5.68;4.65;;;22.40;67.90;;;;;;5000582;28;20479;-86
2021/07/03 09:57:35;;;;;;;9.85;4.15;;;22.40;67.50;;;;;;4996805;28;20414;-88
2021/07/03 10:00:01;;;;;;;4.40;3.45;;;22.50;67.60;;;;;;4996160;28;20042;-84
2021/07/03 10:02:28;;;;;;;5.93;4.15;;;22.50;67.20;;;;;;4996503;28;20519;-85
2021/07/03 10:04:54;;;;;;;7.72;5.07;;;22.60;66.60;;;;;;4997214;28;20030;-87
2021/07/03 10:07:27;;;;;;;5.35;3.85;;;22.70;66.30;;;;;;4996524;28;20025;-82
2021/07/03 10:09:57;;;;;;;8.75;4.45;;;22.90;65.60;;;;;;4997116;28;20018;-85
2021/07/03 10:12:27;;;;;;;5.72;3.28;;;23.10;64.30;;;;;;4997802;28;20038;-86
2021/07/03 10:14:54;;;;;;;8.70;3.35;;;23.30;62.90;;;;;;4996993;28;20388;-86
2021/07/03 10:17:27;;;;;;;6.83;4.07;;;23.60;62.60;;;;;;4998085;28;20061;-85
2021/07/03 10:19:54;;;;;;;3.97;3.53;;;24.20;61.30;;;;;;4998806;28;20026;-85
2021/07/03 10:22:22;;;;;;;5.45;2.80;;;24.60;58.20;;;;;;4999047;28;20022;-87
2021/07/03 10:25:16;;;;;;;3.05;2.60;;;24.90;57.10;;;;;;4988538;28;20046;-85
2021/07/03 10:27:56;;;;;;;4.28;3.25;;;25.50;56.20;;;;;;4995909;28;20062;-84
2021/07/03 10:30:25;;;;;;;4.70;3.65;;;25.50;55.40;;;;;;4983085;28;20018;-84
2021/07/03 10:32:59;;;;;;;5.45;2.97;;;25.40;56.00;;;;;;4995936;28;20026;-84
2021/07/03 10:35:26;;;;;;;3.22;2.88;;;25.10;55.40;;;;;;4995921;28;20029;-83
2021/07/03 10:37:54;;;;;;;4.72;3.30;;;24.90;56.00;;;;;;4996130;28;20380;-82
2021/07/03 10:40:23;;;;;;;3.60;3.25;;;24.60;56.10;;;;;;4995570;28;20088;-83
2021/07/03 10:42:50;;;;;;;7.53;3.72;;;24.30;57.20;;;;;;4995680;28;20023;-83
2021/07/03 10:45:22;;;;;;;;;;;24.20;58.30;;;;;;4994250;28;20022;-86
2021/07/03 10:47:48;;;;;;;4.75;3.45;;;24.40;58.20;;;;;;4999522;28;19910;-89
2021/07/03 10:50:25;;;;;;;6.30;3.47;;;24.60;57.30;;;;;;4997001;28;20045;-89
2021/07/03 10:52:53;;;;;;;3.70;3.40;;;25.00;57.10;;;;;;4994058;28;20503;-83
2021/07/03 10:55:35;;;;;;;6.43;3.10;;;25.10;55.80;;;;;;4994091;28;20392;-82
2021/07/03 10:58:13;;;;;;;4.65;3.55;;;25.30;55.70;;;;;;4995149;28;20026;-84
2021/07/03 11:00:39;;;;;;;4.95;3.53;;;25.10;55.40;;;;;;4994514;28;20034;-82
2021/07/03 11:03:16;;;;;;;9.55;5.65;;;25.00;55.80;;;;;;4994625;28;20026;-83
2021/07/03 11:05:42;;;;;;;5.68;4.75;;;25.10;56.10;;;;;;4993127;28;20480;-81
2021/07/03 11:08:12;;;;;;;6.30;4.95;;;25.20;55.70;;;;;;4993182;28;20030;-84
2021/07/03 11:10:39;;;;;;;5.00;4.50;;;25.10;56.00;;;;;;4996032;28;20031;-80
2021/07/03 11:13:06;;;;;;;6.90;4.47;;;24.90;56.80;;;;;;4994627;28;20042;-83
2021/07/03 11:15:36;;;;;;;6.22;4.72;;;24.60;57.70;;;;;;4992245;28;20027;-83
2021/07/03 11:18:02;;;;;;;6.85;4.03;;;24.50;58.10;;;;;;4994157;28;20484;-82
2021/07/03 11:20:40;;;;;;;5.27;4.03;;;24.40;57.60;;;;;;4993545;28;20050;-81
2021/07/03 11:23:07;;;;;;;8.85;4.18;;;24.20;57.50;;;;;;4994180;28;20027;-82
2021/07/03 11:25:36;;;;;;;4.80;4.25;;;24.10;58.50;;;;;;5002370;28;20025;-81
2021/07/03 11:28:11;;;;;;;7.18;4.53;;;24.10;58.80;;;;;;4994201;28;20030;-85
2021/07/03 11:30:40;;;;;;;9.40;5.03;;;24.20;59.00;;;;;;4993782;28;20037;-83
2021/07/03 11:33:08;;;;;;;6.47;4.60;;;24.20;59.60;;;;;;4994916;28;20022;-83
2021/07/03 11:35:35;;;;;;;6.90;4.40;;;24.10;59.50;;;;;;4994104;28;20072;-81
2021/07/03 11:38:02;;;;;;;6.30;4.15;;;24.10;59.70;;;;;;4994160;28;20018;-81
2021/07/03 11:40:30;;;;;;;5.13;4.40;;;24.10;59.60;;;;;;4994812;28;20034;-83
2021/07/03 11:43:01;;;;;;;7.32;4.90;;;24.00;59.90;;;;;;4994286;28;20018;-83
2021/07/03 11:45:30;;;;;;;6.95;4.72;;;23.80;60.80;;;;;;4991599;28;20468;-83
2021/07/03 11:48:10;;;;;;;7.80;5.57;;;23.60;61.50;;;;;;4993571;28;20383;-83
2021/07/03 11:50:48;;;;;;;7.53;4.72;;;23.60;62.00;;;;;;5007169;28;20022;-83
2021/07/03 11:53:16;;;;;;;7.57;5.00;;;23.50;62.60;;;;;;4995225;28;20034;-82
2021/07/03 11:55:46;;;;;;;8.70;5.50;;;23.30;63.30;;;;;;4994939;28;20027;-84
2021/07/03 11:58:14;;;;;;;13.88;6.28;;;23.20;63.30;;;;;;4995282;28;20018;-84
2021/07/03 12:00:48;;;;;;;10.88;5.70;;;23.10;62.40;;;;;;4994873;28;20026;-85
2021/07/03 12:03:15;;;;;;;5.85;4.75;;;22.90;62.10;;;;;;4994975;28;20030;-83
2021/07/03 12:05:45;;;;;;;6.10;4.47;;;22.80;63.10;;;;;;4992867;28;20046;-82
2021/07/03 12:08:14;;;;;;;11.45;5.20;;;22.90;63.20;;;;;;4993414;28;20034;-85
2021/07/03 12:10:56;;;;;;;9.38;4.88;;;23.10;63.20;;;;;;4993762;28;20034;-83
2021/07/03 12:13:28;;;;;;;11.40;5.60;;;23.20;63.10;;;;;;4992641;28;20066;-84
2021/07/03 12:15:54;;;;;;;7.78;4.93;;;23.10;63.40;;;;;;4993558;28;20412;-80
2021/07/03 12:18:34;;;;;;;7.15;4.43;;;23.10;63.30;;;;;;4994018;28;20026;-83
2021/07/03 12:21:19;;;;;;;7.65;3.97;;;23.30;63.00;;;;;;4994261;28;20473;-83
2021/07/03 12:23:48;;;;;;;6.07;3.83;;;23.30;62.90;;;;;;4996954;28;20030;-81
2021/07/03 12:26:35;;;;;;;4.10;3.63;;;23.30;62.40;;;;;;4997474;28;20484;-82
2021/07/03 12:29:02;;;;;;;;;;;23.20;61.00;;;;;;4993790;28;20041;-83
2021/07/03 12:31:31;;;;;;;7.07;4.35;;;23.10;61.30;;;;;;4994188;28;20322;-82
2021/07/03 12:34:09;;;;;;;6.63;3.83;;;23.00;62.00;;;;;;4994334;28;20061;-81
2021/07/03 12:36:36;;;;;;;6.63;3.72;;;23.00;61.90;;;;;;4994799;28;20113;-83
2021/07/03 12:39:20;;;;;;;5.70;3.83;;;23.20;62.10;;;;;;4995354;28;20069;-84
2021/07/03 12:41:57;;;;;;;7.80;4.68;;;23.50;61.70;;;;;;4992435;28;20038;-85
2021/07/03 12:44:33;;;;;;;5.90;4.13;;;23.60;62.40;;;;;;4993789;28;20029;-86
2021/07/03 12:47:00;;;;;;;13.50;4.35;;;23.50;63.20;;;;;;4992772;28;20423;-83
2021/07/03 12:49:39;;;;;;;6.03;4.63;;;23.40;63.80;;;;;;4981321;28;20027;-81
2021/07/03 12:52:07;;;;;;;7.20;4.35;;;23.40;63.80;;;;;;4992478;28;20432;-82
2021/07/03 12:54:33;;;;;;;9.10;4.22;;;23.50;63.80;;;;;;4992973;28;20081;-83